createdAt,value
2023-03-15T00:00:24.006Z,4.60
2023-03-15T00:02:50.763Z,7.03
2023-03-15T00:05:17.593Z,4.97
2023-03-15T00:07:44.389Z,2.97
2023-03-15T00:10:11.395Z,2.85
2023-03-15T00:12:38.089Z,1.50
2023-03-15T00:15:05.240Z,2.60
2023-03-15T00:17:34.783Z,3.47
2023-03-15T00:20:01.985Z,5.35
2023-03-15T00:22:28.663Z,2.05
2023-03-15T00:24:55.310Z,3.22
2023-03-15T00:27:25.232Z,3.83
2023-03-15T00:29:51.879Z,8.15
2023-03-15T00:32:18.544Z,3.92
2023-03-15T00:34:49.024Z,4.68
2023-03-15T00:37:16.904Z,6.45
2023-03-15T00:39:45.436Z,2.88
2023-03-15T00:42:16.883Z,2.05
2023-03-15T00:44:44.632Z,2.58
2023-03-15T00:47:12.561Z,5.80
2023-03-15T00:49:40.601Z,4.95
2023-03-15T00:52:08.065Z,4.50
2023-03-15T00:54:34.823Z,2.45
2023-03-15T00:57:02.258Z,2.67
2023-03-15T00:59:34.860Z,3.25
2023-03-15T01:02:03.406Z,7.75
2023-03-15T01:04:31.433Z,5.32
2023-03-15T01:06:59.059Z,4.25
2023-03-15T01:09:25.723Z,3.47
2023-03-15T01:11:52.445Z,3.17
2023-03-15T01:14:19.102Z,2.28
2023-03-15T01:16:46.338Z,5.68
2023-03-15T01:19:13.565Z,3.05
2023-03-15T01:21:40.251Z,5.80
2023-03-15T01:24:07.233Z,2.22
2023-03-15T01:26:33.893Z,3.22
2023-03-15T01:29:00.565Z,3.72
2023-03-15T01:31:30.594Z,4.32
2023-03-15T01:33:59.007Z,2.58
2023-03-15T01:36:25.655Z,3.65
2023-03-15T01:38:55.962Z,4.97
2023-03-15T01:41:24.827Z,3.08
2023-03-15T01:43:51.887Z,3.03
2023-03-15T01:46:26.931Z,5.03
2023-03-15T01:49:02.308Z,4.70
2023-03-15T01:51:47.430Z,2.28
2023-03-15T01:54:23.962Z,4.45
2023-03-15T01:56:57.498Z,4.18
2023-03-15T01:59:29.706Z,6.03
2023-03-15T02:01:57.173Z,6.97
2023-03-15T02:04:31.396Z,3.67
2023-03-15T02:07:01.579Z,2.40
2023-03-15T02:09:37.983Z,4.00
2023-03-15T02:14:32.875Z,6.03
2023-03-15T02:16:59.496Z,5.13
2023-03-15T02:19:49.321Z,8.90
2023-03-15T02:22:38.059Z,6.63
2023-03-15T02:25:20.716Z,3.75
2023-03-15T02:27:48.098Z,6.00
2023-03-15T02:30:14.923Z,3.33
2023-03-15T02:32:41.683Z,3.72
2023-03-15T02:35:09.204Z,3.90
2023-03-15T02:37:36.170Z,4.95
2023-03-15T02:40:05.839Z,3.20
2023-03-15T02:42:32.686Z,3.83
2023-03-15T02:44:59.431Z,4.50
2023-03-15T02:47:32.330Z,7.25
2023-03-15T02:49:59.027Z,2.05
2023-03-15T02:52:26.443Z,4.35
2023-03-15T02:54:54.140Z,8.80
2023-03-15T02:57:21.284Z,5.25
2023-03-15T02:59:50.967Z,6.65
2023-03-15T03:02:17.941Z,4.50
2023-03-15T03:04:44.726Z,1.98
2023-03-15T03:07:11.504Z,5.07
2023-03-15T03:09:38.113Z,2.20
2023-03-15T03:12:05.105Z,3.42
2023-03-15T03:14:31.772Z,7.50
2023-03-15T03:16:58.682Z,2.42
2023-03-15T03:19:25.839Z,3.88
2023-03-15T03:21:53.825Z,5.85
2023-03-15T03:24:21.029Z,4.15
2023-03-15T03:26:47.736Z,9.07
2023-03-15T03:29:16.679Z,5.15
2023-03-15T03:31:44.355Z,7.65
2023-03-15T03:34:14.548Z,6.28
2023-03-15T03:36:42.819Z,8.88
2023-03-15T03:39:10.169Z,3.22
2023-03-15T03:41:36.962Z,3.50
2023-03-15T03:44:04.356Z,5.90
2023-03-15T03:46:31.157Z,4.30
2023-03-15T03:48:57.884Z,3.40
2023-03-15T03:51:24.530Z,7.78
2023-03-15T03:53:51.165Z,3.35
2023-03-15T03:56:17.908Z,3.85
2023-03-15T03:58:44.543Z,6.47
2023-03-15T04:01:11.703Z,4.70
2023-03-15T04:03:38.332Z,2.88
2023-03-15T04:06:05.788Z,5.40
2023-03-15T04:08:32.518Z,8.07
2023-03-15T04:10:59.508Z,4.75
2023-03-15T04:13:26.178Z,4.00
2023-03-15T04:15:57.658Z,4.85
2023-03-15T04:18:25.009Z,4.20
2023-03-15T04:20:54.764Z,4.97
2023-03-15T04:23:23.469Z,4.30
2023-03-15T04:25:52.194Z,3.28
2023-03-15T04:28:23.019Z,5.93
2023-03-15T04:30:50.622Z,2.85
2023-03-15T04:33:17.447Z,4.32
2023-03-15T04:35:44.177Z,3.85
2023-03-15T04:38:10.976Z,7.55
2023-03-15T04:40:37.752Z,6.00
2023-03-15T04:43:05.753Z,2.53
2023-03-15T04:45:32.625Z,3.97
2023-03-15T04:48:00.292Z,4.68
2023-03-15T04:50:27.767Z,6.13
2023-03-15T04:52:54.832Z,8.07
2023-03-15T04:55:21.520Z,5.25
2023-03-15T04:57:48.265Z,4.13
2023-03-15T05:00:15.285Z,5.03
2023-03-15T05:02:42.298Z,9.07
2023-03-15T05:05:10.375Z,6.25
2023-03-15T05:07:38.159Z,8.90
2023-03-15T05:10:06.438Z,7.40
2023-03-15T05:12:34.056Z,7.35
2023-03-15T05:15:00.895Z,5.68
2023-03-15T05:17:28.047Z,6.97
2023-03-15T05:19:54.874Z,7.15
2023-03-15T05:22:25.970Z,4.65
2023-03-15T05:24:53.821Z,4.30
2023-03-15T05:27:20.899Z,4.30
2023-03-15T05:29:47.652Z,6.80
2023-03-15T05:32:14.386Z,5.35
2023-03-15T05:34:42.768Z,6.53
2023-03-15T05:37:10.337Z,6.55
2023-03-15T05:39:42.523Z,5.47
2023-03-15T05:42:09.167Z,3.78
2023-03-15T05:44:35.752Z,9.15
2023-03-15T05:47:02.545Z,6.95
2023-03-15T05:49:29.171Z,5.03
2023-03-15T05:51:55.815Z,5.93
2023-03-15T05:54:22.695Z,3.13
2023-03-15T05:56:49.306Z,2.58
2023-03-15T05:59:15.967Z,2.78
2023-03-15T06:01:42.570Z,2.25
2023-03-15T06:04:09.364Z,2.85
2023-03-15T06:06:36.047Z,3.47
2023-03-15T06:09:02.667Z,0.95
2023-03-15T06:11:29.327Z,4.32
2023-03-15T06:13:55.942Z,4.57
2023-03-15T06:16:22.597Z,3.38
2023-03-15T06:18:49.305Z,4.10
2023-03-15T06:21:15.918Z,5.35
2023-03-15T06:23:42.579Z,5.30
2023-03-15T06:26:09.336Z,3.25
2023-03-15T06:28:36.007Z,8.18
2023-03-15T06:31:11.938Z,8.57
2023-03-15T06:33:39.247Z,8.18
2023-03-15T06:36:06.441Z,10.75
2023-03-15T06:38:33.239Z,9.80
2023-03-15T06:41:01.284Z,8.23
2023-03-15T06:43:28.627Z,6.43
2023-03-15T06:45:56.802Z,12.63
2023-03-15T06:48:23.467Z,9.70
2023-03-15T06:50:50.162Z,3.85
2023-03-15T06:53:17.776Z,7.10
2023-03-15T06:55:45.465Z,2.78
2023-03-15T06:58:13.040Z,2.25
2023-03-15T07:00:40.162Z,3.10
2023-03-15T07:03:06.764Z,2.13
2023-03-15T07:05:33.419Z,2.13
2023-03-15T07:08:00.065Z,2.75
2023-03-15T07:10:27.050Z,3.78
2023-03-15T07:12:53.698Z,3.00
2023-03-15T07:15:20.405Z,5.32
2023-03-15T07:17:47.086Z,11.30
2023-03-15T07:20:13.940Z,4.10
2023-03-15T07:22:40.724Z,6.00
2023-03-15T07:25:07.686Z,11.10
2023-03-15T07:27:34.416Z,5.55
2023-03-15T07:30:01.413Z,5.35
2023-03-15T07:32:28.303Z,9.10
2023-03-15T07:34:58.313Z,13.18
2023-03-15T07:37:25.004Z,10.93
2023-03-15T07:39:51.665Z,14.13
2023-03-15T07:42:18.394Z,12.48
2023-03-15T07:44:45.038Z,12.40
2023-03-15T07:47:11.732Z,12.23
2023-03-15T07:49:38.367Z,11.63
2023-03-15T07:52:05.113Z,12.68
2023-03-15T07:54:32.084Z,10.13
2023-03-15T07:56:58.822Z,15.52
2023-03-15T07:59:25.802Z,15.52
2023-03-15T08:01:52.476Z,12.15
2023-03-15T08:04:19.155Z,13.00
2023-03-15T08:06:45.782Z,12.38
2023-03-15T08:09:12.419Z,12.07
2023-03-15T08:11:39.107Z,12.23
2023-03-15T08:14:05.894Z,9.35
2023-03-15T08:16:32.610Z,9.20
2023-03-15T08:18:59.276Z,13.38
2023-03-15T08:21:26.032Z,14.23
2023-03-15T08:23:52.781Z,16.35
2023-03-15T08:26:19.425Z,18.42
2023-03-15T08:28:49.237Z,11.90
2023-03-15T08:31:15.965Z,10.85
2023-03-15T08:33:42.697Z,5.90
2023-03-15T08:36:09.635Z,8.38
2023-03-15T08:38:36.576Z,9.35
2023-03-15T08:41:03.594Z,10.35
2023-03-15T08:43:30.495Z,10.73
2023-03-15T08:46:01.260Z,10.90
2023-03-15T08:48:28.648Z,13.57
2023-03-15T08:53:35.518Z,12.98
2023-03-15T08:56:02.163Z,13.38
2023-03-15T08:58:28.773Z,11.45
2023-03-15T09:00:55.589Z,7.43
2023-03-15T09:03:22.628Z,9.50
2023-03-15T09:05:49.745Z,11.85
2023-03-15T09:08:21.069Z,9.38
2023-03-15T09:10:47.703Z,10.57
2023-03-15T09:13:14.339Z,13.18
2023-03-15T09:15:40.956Z,10.25
2023-03-15T09:18:08.271Z,14.13
2023-03-15T09:20:34.937Z,14.48
2023-03-15T09:23:01.612Z,17.77
2023-03-15T09:25:28.281Z,7.15
2023-03-15T09:27:55.134Z,19.80
2023-03-15T09:30:22.044Z,17.70
2023-03-15T09:32:49.202Z,9.00
2023-03-15T09:35:18.889Z,12.07
2023-03-15T09:37:46.361Z,10.65
2023-03-15T09:40:22.163Z,7.70
2023-03-15T09:43:04.125Z,11.43
2023-03-15T09:45:46.407Z,12.88
2023-03-15T09:48:25.131Z,11.57
2023-03-15T09:50:57.183Z,13.32
2023-03-15T09:53:27.808Z,12.88
2023-03-15T09:55:55.454Z,6.47
2023-03-15T09:58:26.895Z,15.93
2023-03-15T10:00:58.176Z,12.55
2023-03-15T10:03:49.198Z,7.53
2023-03-15T10:06:30.280Z,6.25
2023-03-15T10:08:59.482Z,8.52
2023-03-15T10:11:56.494Z,8.90
2023-03-15T10:14:58.278Z,6.00
2023-03-15T10:17:34.019Z,7.85
2023-03-15T10:20:10.298Z,5.65
2023-03-15T10:22:45.280Z,22.30
2023-03-15T10:25:17.947Z,9.63
2023-03-15T10:28:09.571Z,9.40
2023-03-15T10:30:38.503Z,6.95
2023-03-15T10:33:18.257Z,6.55
2023-03-15T10:35:44.954Z,13.95
2023-03-15T10:38:17.374Z,9.18
2023-03-15T10:40:45.986Z,6.03
2023-03-15T10:43:22.948Z,11.52
2023-03-15T10:46:06.677Z,12.02
2023-03-15T10:48:35.860Z,6.22
2023-03-15T10:51:19.608Z,15.48
2023-03-15T10:54:06.733Z,8.18
2023-03-15T10:56:47.268Z,8.10
2023-03-15T10:59:25.073Z,10.43
2023-03-15T11:01:54.119Z,10.00
2023-03-15T11:04:23.863Z,7.70
2023-03-15T11:07:03.469Z,10.60
2023-03-15T11:09:51.226Z,6.30
2023-03-15T11:12:27.705Z,9.63
2023-03-15T11:15:19.792Z,11.48
2023-03-15T11:17:49.875Z,5.47
2023-03-15T11:20:30.571Z,10.95
2023-03-15T11:22:58.524Z,12.50
2023-03-15T11:25:31.795Z,14.57
2023-03-15T11:27:59.883Z,10.75
2023-03-15T11:30:30.059Z,11.55
2023-03-15T11:33:01.687Z,11.32
2023-03-15T11:35:36.537Z,7.28
2023-03-15T11:38:15.187Z,4.53
2023-03-15T11:40:48.179Z,7.72
2023-03-15T11:43:18.695Z,4.90
2023-03-15T11:45:55.695Z,4.30
2023-03-15T11:48:26.836Z,9.45
2023-03-15T11:50:55.427Z,12.82
2023-03-15T11:53:25.594Z,9.38
2023-03-15T11:55:55.902Z,11.35
2023-03-15T11:58:34.291Z,11.30
2023-03-15T12:01:03.524Z,7.15
2023-03-15T12:03:37.081Z,10.00
2023-03-15T12:06:06.868Z,9.00
2023-03-15T12:08:35.530Z,9.57
2023-03-15T12:11:10.000Z,9.43
2023-03-15T12:13:36.665Z,10.82
2023-03-15T12:16:06.751Z,9.90
2023-03-15T12:18:43.712Z,7.40
2023-03-15T12:21:15.505Z,9.70
2023-03-15T12:23:47.024Z,12.50
2023-03-15T12:26:40.438Z,8.25
2023-03-15T12:29:20.036Z,5.15
2023-03-15T12:31:52.449Z,6.28
2023-03-15T12:34:28.927Z,6.00
2023-03-15T12:37:02.309Z,9.40
2023-03-15T12:39:46.329Z,12.82
2023-03-15T12:42:34.107Z,12.93
2023-03-15T12:45:16.010Z,9.00
2023-03-15T12:47:47.911Z,11.63
2023-03-15T12:50:45.637Z,7.57
2023-03-15T12:53:27.652Z,7.38
2023-03-15T12:56:02.821Z,8.75
2023-03-15T12:58:38.562Z,8.38
2023-03-15T13:01:08.089Z,5.43
2023-03-15T13:03:36.229Z,16.35
2023-03-15T13:06:35.965Z,8.65
2023-03-15T13:09:19.881Z,4.88
2023-03-15T13:11:54.458Z,8.70
2023-03-15T13:14:43.014Z,6.95
2023-03-15T13:17:24.558Z,6.90
2023-03-15T13:20:05.990Z,7.78
2023-03-15T13:22:55.461Z,7.93
2023-03-15T13:25:34.591Z,8.90
2023-03-15T13:28:22.488Z,12.77
2023-03-15T13:30:52.643Z,8.50
2023-03-15T13:33:31.432Z,10.15
2023-03-15T13:36:01.857Z,7.10
2023-03-15T13:38:35.001Z,8.90
2023-03-15T13:41:15.527Z,7.22
2023-03-15T13:43:42.448Z,9.90
2023-03-15T13:46:09.396Z,8.55
2023-03-15T13:48:40.737Z,11.15
2023-03-15T13:51:19.198Z,6.78
2023-03-15T13:53:50.341Z,10.88
2023-03-15T13:56:21.021Z,13.82
2023-03-15T13:58:49.401Z,13.18
2023-03-15T14:01:17.394Z,5.88
2023-03-15T14:03:53.819Z,10.65
2023-03-15T14:06:24.942Z,6.00
2023-03-15T14:08:59.359Z,14.32
2023-03-15T14:11:25.967Z,12.40
2023-03-15T14:13:58.452Z,10.48
2023-03-15T14:17:01.257Z,7.03
2023-03-15T14:19:32.854Z,10.07
2023-03-15T14:22:02.271Z,8.07
2023-03-15T14:24:37.369Z,9.20
2023-03-15T14:27:22.038Z,9.90
2023-03-15T14:29:52.110Z,4.57
2023-03-15T14:32:33.865Z,7.90
2023-03-15T14:35:08.094Z,6.75
2023-03-15T14:37:41.390Z,9.13
2023-03-15T14:40:21.117Z,8.52
2023-03-15T14:42:50.632Z,12.07
2023-03-15T14:45:18.670Z,7.03
2023-03-15T14:47:56.665Z,7.53
2023-03-15T14:50:27.948Z,4.20
2023-03-15T14:52:56.764Z,6.22
2023-03-15T14:55:28.410Z,8.75
2023-03-15T14:57:55.475Z,8.27
2023-03-15T15:00:22.614Z,4.60
2023-03-15T15:02:53.712Z,6.38
2023-03-15T15:05:24.780Z,6.82
2023-03-15T15:07:55.714Z,7.63
2023-03-15T15:10:24.172Z,6.35
2023-03-15T15:13:05.230Z,12.95
2023-03-15T15:15:43.781Z,3.47
2023-03-15T15:18:18.165Z,6.93
2023-03-15T15:20:45.306Z,5.68
2023-03-15T15:23:23.058Z,8.07
2023-03-15T15:25:51.683Z,4.35
2023-03-15T15:28:33.304Z,6.40
2023-03-15T15:31:01.159Z,7.55
2023-03-15T15:33:27.829Z,6.35
2023-03-15T15:35:56.407Z,5.07
2023-03-15T15:38:34.808Z,10.50
2023-03-15T15:41:01.777Z,8.40
2023-03-15T15:43:28.843Z,7.57
2023-03-15T15:45:55.457Z,6.25
2023-03-15T15:48:22.306Z,5.68
2023-03-15T15:50:49.229Z,5.15
2023-03-15T15:53:18.184Z,2.33
2023-03-15T15:55:45.920Z,2.85
2023-03-15T15:58:14.098Z,7.22
2023-03-15T16:00:40.782Z,6.43
2023-03-15T16:03:15.345Z,4.93
2023-03-15T16:05:42.573Z,7.75
2023-03-15T16:08:21.191Z,7.82
2023-03-15T16:10:48.129Z,6.22
2023-03-15T16:13:15.287Z,4.30
2023-03-15T16:15:41.958Z,7.70
2023-03-15T16:18:10.818Z,3.08
2023-03-15T16:20:39.151Z,7.30
2023-03-15T16:23:06.275Z,9.07
2023-03-15T16:25:36.299Z,8.13
2023-03-15T16:28:05.253Z,9.80
2023-03-15T16:30:35.707Z,6.53
2023-03-15T16:33:02.375Z,6.03
2023-03-15T16:35:33.915Z,4.45
2023-03-15T16:38:01.764Z,8.23
2023-03-15T16:40:31.919Z,6.82
2023-03-15T16:42:59.585Z,8.15
2023-03-15T16:45:27.057Z,9.70
2023-03-15T16:47:53.938Z,6.10
2023-03-15T16:50:20.745Z,8.07
2023-03-15T16:52:51.819Z,3.95
2023-03-15T16:55:23.626Z,19.80
2023-03-15T16:57:50.330Z,6.32
2023-03-15T17:00:18.369Z,4.82
2023-03-15T17:02:47.424Z,9.13
2023-03-15T17:05:18.903Z,7.25
2023-03-15T17:07:51.171Z,7.15
2023-03-15T17:10:23.157Z,8.65
2023-03-15T17:12:52.380Z,7.05
2023-03-15T17:15:23.945Z,8.20
2023-03-15T17:17:52.713Z,7.72
2023-03-15T17:20:21.949Z,12.35
2023-03-15T17:22:51.156Z,9.82
2023-03-15T17:25:18.946Z,7.05
2023-03-15T17:27:46.866Z,7.15
2023-03-15T17:30:18.169Z,8.18
2023-03-15T17:32:45.446Z,4.60
2023-03-15T17:35:13.976Z,7.25
2023-03-15T17:37:44.726Z,5.00
2023-03-15T17:40:21.258Z,12.68
2023-03-15T17:45:24.645Z,8.80
2023-03-15T17:47:52.015Z,5.75
2023-03-15T17:50:19.148Z,5.53
2023-03-15T17:52:48.275Z,8.57
2023-03-15T17:55:18.566Z,5.93
2023-03-15T17:57:54.002Z,6.53
2023-03-15T18:00:22.165Z,5.20
2023-03-15T18:02:55.692Z,6.78
2023-03-15T18:05:25.804Z,8.63
2023-03-15T18:08:00.544Z,6.97
2023-03-15T18:10:43.955Z,6.08
2023-03-15T18:13:14.295Z,8.23
2023-03-15T18:15:41.484Z,8.27
2023-03-15T18:18:08.230Z,15.55
2023-03-15T18:20:35.292Z,6.65
2023-03-15T18:23:02.512Z,7.22
2023-03-15T18:25:32.060Z,10.82
2023-03-15T18:27:59.438Z,8.15
2023-03-15T18:30:28.340Z,8.82
2023-03-15T18:32:56.560Z,10.07
2023-03-15T18:35:27.879Z,9.63
2023-03-15T18:37:56.143Z,10.30
2023-03-15T18:40:24.664Z,6.78
2023-03-15T18:42:51.450Z,6.38
2023-03-15T18:45:29.805Z,13.10
2023-03-15T18:47:57.118Z,11.13
2023-03-15T18:50:23.894Z,14.00
2023-03-15T18:52:51.446Z,12.02
2023-03-15T18:55:22.086Z,7.22
2023-03-15T18:57:50.572Z,9.18
2023-03-15T19:00:25.963Z,13.20
2023-03-15T19:02:55.695Z,7.63
2023-03-15T19:05:22.403Z,7.40
2023-03-15T19:07:49.148Z,9.85
2023-03-15T19:10:19.120Z,19.40
2023-03-15T19:12:46.464Z,7.80
2023-03-15T19:15:17.348Z,6.15
2023-03-15T19:17:46.254Z,15.35
2023-03-15T19:20:15.234Z,12.48
2023-03-15T19:22:42.517Z,9.25
2023-03-15T19:25:13.832Z,9.48
2023-03-15T19:27:42.020Z,9.23
2023-03-15T19:30:12.049Z,13.70
2023-03-15T19:32:40.428Z,15.45
2023-03-15T19:35:07.610Z,11.48
2023-03-15T19:37:34.348Z,13.85
2023-03-15T19:40:01.167Z,10.15
2023-03-15T19:42:27.986Z,15.55
2023-03-15T19:44:54.610Z,11.07
2023-03-15T19:47:21.257Z,8.55
2023-03-15T19:49:47.858Z,7.68
2023-03-15T19:52:16.036Z,10.60
2023-03-15T19:54:42.682Z,12.93
2023-03-15T19:57:09.419Z,9.73
2023-03-15T19:59:39.890Z,18.90
2023-03-15T20:02:10.454Z,16.02
2023-03-15T20:04:37.205Z,11.20
2023-03-15T20:07:04.201Z,13.45
2023-03-15T20:09:31.065Z,10.38
2023-03-15T20:11:57.747Z,8.63
2023-03-15T20:14:24.418Z,15.90
2023-03-15T20:16:51.198Z,14.85
2023-03-15T20:19:17.848Z,12.38
2023-03-15T20:21:44.886Z,13.98
2023-03-15T20:24:11.711Z,12.30
2023-03-15T20:26:38.371Z,17.58
2023-03-15T20:29:05.035Z,16.23
2023-03-15T20:31:34.921Z,16.10
2023-03-15T20:34:01.764Z,17.25
2023-03-15T20:36:29.142Z,13.70
2023-03-15T20:38:55.780Z,9.90
2023-03-15T20:41:22.439Z,15.10
2023-03-15T20:43:49.080Z,10.73
2023-03-15T20:46:18.771Z,13.00
2023-03-15T20:48:45.969Z,20.10
2023-03-15T20:51:12.636Z,12.20
2023-03-15T20:53:39.300Z,10.88
2023-03-15T20:56:06.695Z,11.73
2023-03-15T20:58:33.426Z,12.48
2023-03-15T21:01:03.366Z,10.75
2023-03-15T21:03:33.171Z,15.05
2023-03-15T21:06:01.262Z,19.30
2023-03-15T21:08:28.478Z,21.73
2023-03-15T21:10:55.585Z,17.70
2023-03-15T21:13:22.690Z,14.73
2023-03-15T21:15:51.874Z,18.10
2023-03-15T21:18:19.147Z,14.73
2023-03-15T21:20:46.254Z,15.25
2023-03-15T21:23:13.020Z,14.05
2023-03-15T21:25:39.708Z,20.02
2023-03-15T21:28:07.062Z,14.73
2023-03-15T21:30:33.737Z,14.35
2023-03-15T21:33:00.746Z,17.10
2023-03-15T21:35:27.538Z,9.43
2023-03-15T21:37:54.239Z,11.27
2023-03-15T21:40:20.896Z,14.07
2023-03-15T21:42:47.871Z,14.50
2023-03-15T21:45:14.872Z,10.40
2023-03-15T21:47:41.676Z,8.63
2023-03-15T21:50:09.188Z,6.75
2023-03-15T21:52:35.852Z,9.68
2023-03-15T21:55:02.595Z,8.82
2023-03-15T21:57:29.260Z,9.35
2023-03-15T21:59:55.918Z,10.32
2023-03-15T22:02:22.648Z,11.70
2023-03-15T22:04:49.290Z,9.30
2023-03-15T22:07:15.977Z,12.23
2023-03-15T22:09:43.340Z,15.27
2023-03-15T22:12:10.505Z,18.13
2023-03-15T22:14:37.418Z,14.65
2023-03-15T22:17:04.849Z,10.90
2023-03-15T22:19:32.216Z,14.88
2023-03-15T22:21:59.019Z,15.38
2023-03-15T22:24:25.676Z,14.88
2023-03-15T22:26:53.145Z,7.97
2023-03-15T22:29:20.218Z,10.48
2023-03-15T22:31:47.046Z,12.95
2023-03-15T22:34:13.672Z,14.18
2023-03-15T22:36:42.694Z,13.50
2023-03-15T22:39:10.336Z,13.18
2023-03-15T22:41:37.962Z,8.27
2023-03-15T22:44:04.830Z,11.65
2023-03-15T22:46:34.856Z,10.35
2023-03-15T22:49:02.163Z,15.00
2023-03-15T22:51:28.824Z,13.32
2023-03-15T22:53:55.478Z,11.32
2023-03-15T22:56:22.187Z,11.50
2023-03-15T22:58:49.303Z,11.32
2023-03-15T23:01:16.019Z,11.98
2023-03-15T23:03:43.274Z,12.13
2023-03-15T23:06:09.908Z,13.68
2023-03-15T23:08:36.526Z,10.23
2023-03-15T23:11:04.021Z,13.25
2023-03-15T23:13:31.160Z,12.65
2023-03-15T23:15:58.082Z,11.52
2023-03-15T23:18:25.062Z,11.90
2023-03-15T23:20:51.920Z,16.67
2023-03-15T23:23:18.598Z,13.70
2023-03-15T23:25:45.953Z,12.13
2023-03-15T23:28:13.887Z,16.73
2023-03-15T23:30:40.613Z,12.38
2023-03-15T23:33:08.520Z,10.10
2023-03-15T23:35:35.619Z,11.52
2023-03-15T23:38:02.475Z,12.27
2023-03-15T23:40:30.179Z,11.77
2023-03-15T23:42:59.371Z,15.88
2023-03-15T23:45:29.869Z,10.43
2023-03-15T23:47:57.247Z,12.95
2023-03-15T23:50:26.100Z,12.70
2023-03-15T23:52:54.716Z,9.27
2023-03-15T23:55:22.530Z,9.18
2023-03-15T23:57:49.647Z,11.93
